sensor_id;sensor_type;location;lat;lon;timestamp;pressure;altitude;pressure_sealevel;temperature;humidity
22333;BME280;11334;36.986;-121.936;2022-10-30T00:00:21;101712.28;;;19.13;60.09
22333;BME280;11334;36.986;-121.936;2022-10-30T00:02:48;101710.84;;;19.17;61.19
22333;BME280;11334;36.986;-121.936;2022-10-30T00:05:15;101720.78;;;19.16;62.13
22333;BME280;11334;36.986;-121.936;2022-10-30T00:07:42;101723.09;;;19.19;63.06
22333;BME280;11334;36.986;-121.936;2022-10-30T00:10:08;101720.22;;;19.21;62.96
22333;BME280;11334;36.986;-121.936;2022-10-30T00:12:35;101722.63;;;19.30;63.17
22333;BME280;11334;36.986;-121.936;2022-10-30T00:15:01;101721.69;;;19.37;62.94
22333;BME280;11334;36.986;-121.936;2022-10-30T00:17:27;101718.97;;;19.37;62.96
22333;BME280;11334;36.986;-121.936;2022-10-30T00:19:53;101721.84;;;19.36;63.03
22333;BME280;11334;36.986;-121.936;2022-10-30T00:22:20;101722.63;;;19.30;63.24
22333;BME280;11334;36.986;-121.936;2022-10-30T00:24:46;101725.22;;;19.24;63.54
22333;BME280;11334;36.986;-121.936;2022-10-30T00:27:12;101735.97;;;19.24;63.77
22333;BME280;11334;36.986;-121.936;2022-10-30T00:29:38;101731.78;;;19.21;63.62
22333;BME280;11334;36.986;-121.936;2022-10-30T00:32:04;101724.94;;;19.19;63.33
22333;BME280;11334;36.986;-121.936;2022-10-30T00:34:31;101735.81;;;19.11;63.57
22333;BME280;11334;36.986;-121.936;2022-10-30T00:36:57;101731.44;;;19.10;63.26
22333;BME280;11334;36.986;-121.936;2022-10-30T00:39:23;101721.81;;;19.01;63.15
22333;BME280;11334;36.986;-121.936;2022-10-30T00:41:49;101732.09;;;18.98;63.36
22333;BME280;11334;36.986;-121.936;2022-10-30T00:47:25;101741.16;;;18.82;64.56
22333;BME280;11334;36.986;-121.936;2022-10-30T00:52:21;101745.69;;;18.67;65.11
22333;BME280;11334;36.986;-121.936;2022-10-30T00:54:48;101750.13;;;18.61;65.44
22333;BME280;11334;36.986;-121.936;2022-10-30T00:57:15;101742.13;;;18.53;65.58
22333;BME280;11334;36.986;-121.936;2022-10-30T00:59:44;101744.09;;;18.44;65.80
22333;BME280;11334;36.986;-121.936;2022-10-30T01:02:10;101755.72;;;18.37;66.05
22333;BME280;11334;36.986;-121.936;2022-10-30T01:04:37;101748.59;;;18.30;66.28
22333;BME280;11334;36.986;-121.936;2022-10-30T01:07:13;101750.69;;;18.20;66.19
22333;BME280;11334;36.986;-121.936;2022-10-30T01:09:40;101751.59;;;18.12;66.69
22333;BME280;11334;36.986;-121.936;2022-10-30T01:12:07;101751.59;;;18.12;67.92
22333;BME280;11334;36.986;-121.936;2022-10-30T01:14:37;101755.84;;;18.07;68.16
22333;BME280;11334;36.986;-121.936;2022-10-30T01:22:51;101750.81;;;17.82;68.38
22333;BME280;11334;36.986;-121.936;2022-10-30T01:25:37;101767.28;;;17.71;68.47
22333;BME280;11334;36.986;-121.936;2022-10-30T01:36:42;101756.41;;;17.42;69.80
22333;BME280;11334;36.986;-121.936;2022-10-30T01:39:17;101755.41;;;17.43;70.00
22333;BME280;11334;36.986;-121.936;2022-10-30T01:41:45;101759.16;;;17.35;70.49
22333;BME280;11334;36.986;-121.936;2022-10-30T01:44:31;101760.50;;;17.31;70.54
22333;BME280;11334;36.986;-121.936;2022-10-30T01:50:08;101769.25;;;17.17;70.82
22333;BME280;11334;36.986;-121.936;2022-10-30T01:52:41;101778.97;;;17.10;70.91
22333;BME280;11334;36.986;-121.936;2022-10-30T01:58:21;101776.31;;;17.02;71.43
22333;BME280;11334;36.986;-121.936;2022-10-30T02:00:57;101775.00;;;16.98;71.62
22333;BME280;11334;36.986;-121.936;2022-10-30T02:03:25;101770.63;;;16.97;71.58
22333;BME280;11334;36.986;-121.936;2022-10-30T02:05:52;101782.88;;;16.92;71.59
22333;BME280;11334;36.986;-121.936;2022-10-30T02:08:20;101783.22;;;16.89;71.50
22333;BME280;11334;36.986;-121.936;2022-10-30T02:10:47;101781.25;;;16.83;71.93
22333;BME280;11334;36.986;-121.936;2022-10-30T02:13:15;101784.44;;;16.78;71.93
22333;BME280;11334;36.986;-121.936;2022-10-30T02:15:42;101793.78;;;16.75;71.83
22333;BME280;11334;36.986;-121.936;2022-10-30T02:18:10;101783.25;;;16.65;72.01
22333;BME280;11334;36.986;-121.936;2022-10-30T02:20:36;101784.13;;;16.66;72.05
22333;BME280;11334;36.986;-121.936;2022-10-30T02:23:03;101786.47;;;16.61;71.95
22333;BME280;11334;36.986;-121.936;2022-10-30T02:25:31;101783.94;;;16.59;71.79
22333;BME280;11334;36.986;-121.936;2022-10-30T02:27:58;101799.84;;;16.61;71.50
22333;BME280;11334;36.986;-121.936;2022-10-30T02:30:24;101794.84;;;16.50;72.00
22333;BME280;11334;36.986;-121.936;2022-10-30T02:32:50;101794.34;;;16.54;71.37
22333;BME280;11334;36.986;-121.936;2022-10-30T02:35:17;101801.88;;;16.51;71.24
22333;BME280;11334;36.986;-121.936;2022-10-30T02:37:43;101786.34;;;16.39;71.42
22333;BME280;11334;36.986;-121.936;2022-10-30T02:40:09;101798.53;;;16.41;71.40
22333;BME280;11334;36.986;-121.936;2022-10-30T02:42:36;101795.34;;;16.30;71.48
22333;BME280;11334;36.986;-121.936;2022-10-30T02:45:03;101788.16;;;16.30;71.15
22333;BME280;11334;36.986;-121.936;2022-10-30T02:47:29;101791.69;;;16.31;71.06
22333;BME280;11334;36.986;-121.936;2022-10-30T02:49:55;101800.03;;;16.28;70.86
22333;BME280;11334;36.986;-121.936;2022-10-30T02:52:22;101798.53;;;16.25;70.66
22333;BME280;11334;36.986;-121.936;2022-10-30T02:54:48;101799.53;;;16.16;70.92
22333;BME280;11334;36.986;-121.936;2022-10-30T02:57:14;101790.13;;;16.05;71.13
22333;BME280;11334;36.986;-121.936;2022-10-30T02:59:40;101789.47;;;16.03;71.09
22333;BME280;11334;36.986;-121.936;2022-10-30T03:02:06;101791.31;;;15.94;71.33
22333;BME280;11334;36.986;-121.936;2022-10-30T03:04:32;101780.09;;;15.91;70.99
22333;BME280;11334;36.986;-121.936;2022-10-30T03:06:59;101782.41;;;15.86;71.11
22333;BME280;11334;36.986;-121.936;2022-10-30T03:09:28;101787.25;;;15.82;71.07
22333;BME280;11334;36.986;-121.936;2022-10-30T03:11:54;101784.41;;;15.76;71.15
22333;BME280;11334;36.986;-121.936;2022-10-30T03:14:20;101788.56;;;15.71;71.05
22333;BME280;11334;36.986;-121.936;2022-10-30T03:16:46;101785.22;;;15.69;71.55
22333;BME280;11334;36.986;-121.936;2022-10-30T03:19:12;101778.69;;;15.63;71.33
22333;BME280;11334;36.986;-121.936;2022-10-30T03:21:39;101773.16;;;15.49;71.56
22333;BME280;11334;36.986;-121.936;2022-10-30T03:24:05;101782.31;;;15.47;71.81
22333;BME280;11334;36.986;-121.936;2022-10-30T03:26:31;101779.34;;;15.49;71.81
22333;BME280;11334;36.986;-121.936;2022-10-30T03:28:57;101780.97;;;15.35;72.08
22333;BME280;11334;36.986;-121.936;2022-10-30T03:31:24;101781.28;;;15.32;72.37
22333;BME280;11334;36.986;-121.936;2022-10-30T03:33:50;101786.00;;;15.38;72.03
22333;BME280;11334;36.986;-121.936;2022-10-30T03:36:16;101784.97;;;15.31;72.17
22333;BME280;11334;36.986;-121.936;2022-10-30T03:38:42;101788.47;;;15.31;71.76
22333;BME280;11334;36.986;-121.936;2022-10-30T03:41:09;101790.63;;;15.28;71.85
22333;BME280;11334;36.986;-121.936;2022-10-30T03:43:35;101794.44;;;15.18;71.80
22333;BME280;11334;36.986;-121.936;2022-10-30T03:46:01;101787.22;;;15.10;72.14
22333;BME280;11334;36.986;-121.936;2022-10-30T03:48:28;101797.56;;;15.13;71.94
22333;BME280;11334;36.986;-121.936;2022-10-30T03:50:56;101801.16;;;15.04;72.17
22333;BME280;11334;36.986;-121.936;2022-10-30T03:53:23;101798.09;;;14.91;72.15
22333;BME280;11334;36.986;-121.936;2022-10-30T03:56:00;101811.47;;;14.99;71.55
22333;BME280;11334;36.986;-121.936;2022-10-30T03:58:28;101815.63;;;14.94;71.51
22333;BME280;11334;36.986;-121.936;2022-10-30T04:00:58;101815.56;;;14.86;71.54
22333;BME280;11334;36.986;-121.936;2022-10-30T04:03:27;101823.94;;;14.91;71.20
22333;BME280;11334;36.986;-121.936;2022-10-30T04:05:53;101827.91;;;14.87;71.11
22333;BME280;11334;36.986;-121.936;2022-10-30T04:08:19;101824.22;;;14.80;70.94
22333;BME280;11334;36.986;-121.936;2022-10-30T04:10:46;101828.19;;;14.76;70.69
22333;BME280;11334;36.986;-121.936;2022-10-30T04:13:14;101827.59;;;14.65;70.85
22333;BME280;11334;36.986;-121.936;2022-10-30T04:15:41;101831.72;;;14.59;71.43
22333;BME280;11334;36.986;-121.936;2022-10-30T04:18:12;101825.19;;;14.54;71.27
22333;BME280;11334;36.986;-121.936;2022-10-30T04:20:38;101836.19;;;14.51;71.55
22333;BME280;11334;36.986;-121.936;2022-10-30T04:23:07;101834.19;;;14.53;71.14
22333;BME280;11334;36.986;-121.936;2022-10-30T04:25:35;101835.94;;;14.45;71.30
22333;BME280;11334;36.986;-121.936;2022-10-30T04:28:02;101831.38;;;14.37;71.54
22333;BME280;11334;36.986;-121.936;2022-10-30T04:30:28;101822.31;;;14.30;71.27
22333;BME280;11334;36.986;-121.936;2022-10-30T04:33:01;101830.69;;;14.35;71.68
22333;BME280;11334;36.986;-121.936;2022-10-30T04:35:30;101838.03;;;14.33;71.62
22333;BME280;11334;36.986;-121.936;2022-10-30T04:38:02;101844.13;;;14.26;71.74
22333;BME280;11334;36.986;-121.936;2022-10-30T04:40:31;101840.78;;;14.24;71.56
22333;BME280;11334;36.986;-121.936;2022-10-30T04:42:58;101845.19;;;14.16;71.59
22333;BME280;11334;36.986;-121.936;2022-10-30T04:45:25;101834.84;;;14.13;71.91
22333;BME280;11334;36.986;-121.936;2022-10-30T04:47:51;101843.13;;;14.10;72.04
22333;BME280;11334;36.986;-121.936;2022-10-30T04:50:18;101842.75;;;14.05;72.08
22333;BME280;11334;36.986;-121.936;2022-10-30T04:52:44;101843.75;;;14.04;72.55
22333;BME280;11334;36.986;-121.936;2022-10-30T04:55:11;101847.69;;;14.00;72.58
22333;BME280;11334;36.986;-121.936;2022-10-30T04:57:37;101854.41;;;14.04;72.50
22333;BME280;11334;36.986;-121.936;2022-10-30T05:00:04;101840.41;;;14.02;72.48
22333;BME280;11334;36.986;-121.936;2022-10-30T05:02:34;101844.91;;;14.01;72.61
22333;BME280;11334;36.986;-121.936;2022-10-30T05:05:02;101833.25;;;14.02;72.10
22333;BME280;11334;36.986;-121.936;2022-10-30T05:07:28;101840.94;;;13.96;72.22
22333;BME280;11334;36.986;-121.936;2022-10-30T05:09:54;101837.25;;;13.89;72.27
22333;BME280;11334;36.986;-121.936;2022-10-30T05:12:20;101831.16;;;13.79;72.37
22333;BME280;11334;36.986;-121.936;2022-10-30T05:14:47;101846.81;;;13.82;73.03
22333;BME280;11334;36.986;-121.936;2022-10-30T05:17:13;101853.59;;;13.77;72.85
22333;BME280;11334;36.986;-121.936;2022-10-30T05:19:39;101851.31;;;13.82;72.27
22333;BME280;11334;36.986;-121.936;2022-10-30T05:22:05;101851.06;;;13.75;72.62
22333;BME280;11334;36.986;-121.936;2022-10-30T05:24:31;101856.19;;;13.69;72.91
22333;BME280;11334;36.986;-121.936;2022-10-30T05:26:58;101837.66;;;13.67;72.82
22333;BME280;11334;36.986;-121.936;2022-10-30T05:29:24;101844.22;;;13.73;72.79
22333;BME280;11334;36.986;-121.936;2022-10-30T05:31:50;101845.78;;;13.66;73.01
22333;BME280;11334;36.986;-121.936;2022-10-30T05:34:16;101838.09;;;13.63;72.74
22333;BME280;11334;36.986;-121.936;2022-10-30T05:36:42;101836.00;;;13.66;73.14
22333;BME280;11334;36.986;-121.936;2022-10-30T05:39:08;101835.31;;;13.64;73.19
22333;BME280;11334;36.986;-121.936;2022-10-30T05:41:35;101836.44;;;13.62;73.30
22333;BME280;11334;36.986;-121.936;2022-10-30T05:44:01;101814.66;;;13.49;72.81
22333;BME280;11334;36.986;-121.936;2022-10-30T05:46:27;101830.94;;;13.63;72.39
22333;BME280;11334;36.986;-121.936;2022-10-30T05:48:53;101835.22;;;13.57;72.57
22333;BME280;11334;36.986;-121.936;2022-10-30T05:51:19;101832.94;;;13.61;72.65
22333;BME280;11334;36.986;-121.936;2022-10-30T05:53:48;101832.69;;;13.55;72.53
22333;BME280;11334;36.986;-121.936;2022-10-30T05:56:15;101837.19;;;13.55;72.32
22333;BME280;11334;36.986;-121.936;2022-10-30T05:58:41;101826.16;;;13.50;73.01
22333;BME280;11334;36.986;-121.936;2022-10-30T06:01:07;101822.78;;;13.48;72.90
22333;BME280;11334;36.986;-121.936;2022-10-30T06:03:34;101841.44;;;13.48;72.78
22333;BME280;11334;36.986;-121.936;2022-10-30T06:06:00;101824.06;;;13.44;72.84
22333;BME280;11334;36.986;-121.936;2022-10-30T06:08:26;101830.91;;;13.46;72.44
22333;BME280;11334;36.986;-121.936;2022-10-30T06:10:53;101832.44;;;13.49;73.04
22333;BME280;11334;36.986;-121.936;2022-10-30T06:13:20;101825.91;;;13.43;72.41
22333;BME280;11334;36.986;-121.936;2022-10-30T06:15:46;101828.03;;;13.40;72.82
22333;BME280;11334;36.986;-121.936;2022-10-30T06:18:12;101810.56;;;13.28;72.61
22333;BME280;11334;36.986;-121.936;2022-10-30T06:20:39;101819.25;;;13.30;73.04
22333;BME280;11334;36.986;-121.936;2022-10-30T06:23:06;101823.34;;;13.25;73.04
22333;BME280;11334;36.986;-121.936;2022-10-30T06:25:34;101820.00;;;13.23;73.38
22333;BME280;11334;36.986;-121.936;2022-10-30T06:28:01;101819.81;;;13.24;73.37
22333;BME280;11334;36.986;-121.936;2022-10-30T06:30:28;101823.75;;;13.29;72.77
22333;BME280;11334;36.986;-121.936;2022-10-30T06:33:02;101823.06;;;13.27;72.93
22333;BME280;11334;36.986;-121.936;2022-10-30T06:35:29;101819.59;;;13.18;73.10
22333;BME280;11334;36.986;-121.936;2022-10-30T06:37:56;101832.47;;;13.22;72.63
22333;BME280;11334;36.986;-121.936;2022-10-30T06:40:25;101825.44;;;13.21;72.76
22333;BME280;11334;36.986;-121.936;2022-10-30T06:42:52;101814.72;;;13.13;73.03
22333;BME280;11334;36.986;-121.936;2022-10-30T06:45:21;101827.19;;;13.13;73.39
22333;BME280;11334;36.986;-121.936;2022-10-30T06:47:47;101829.53;;;13.16;73.21
22333;BME280;11334;36.986;-121.936;2022-10-30T06:50:16;101823.81;;;13.11;73.02
22333;BME280;11334;36.986;-121.936;2022-10-30T06:52:43;101816.97;;;13.08;73.29
22333;BME280;11334;36.986;-121.936;2022-10-30T06:55:10;101820.88;;;13.14;73.25
22333;BME280;11334;36.986;-121.936;2022-10-30T06:57:37;101824.03;;;13.00;73.10
22333;BME280;11334;36.986;-121.936;2022-10-30T07:00:05;101820.66;;;12.98;73.20
22333;BME280;11334;36.986;-121.936;2022-10-30T07:02:32;101827.50;;;13.00;73.64
22333;BME280;11334;36.986;-121.936;2022-10-30T07:04:58;101822.19;;;13.00;73.58
22333;BME280;11334;36.986;-121.936;2022-10-30T07:07:24;101818.56;;;12.92;74.35
22333;BME280;11334;36.986;-121.936;2022-10-30T07:09:50;101812.50;;;12.99;74.06
22333;BME280;11334;36.986;-121.936;2022-10-30T07:12:17;101810.72;;;13.00;74.10
22333;BME280;11334;36.986;-121.936;2022-10-30T07:14:43;101806.34;;;12.99;73.84
22333;BME280;11334;36.986;-121.936;2022-10-30T07:17:09;101805.44;;;12.91;73.83
22333;BME280;11334;36.986;-121.936;2022-10-30T07:19:35;101801.06;;;12.90;74.01
22333;BME280;11334;36.986;-121.936;2022-10-30T07:22:02;101796.63;;;12.90;73.63
22333;BME280;11334;36.986;-121.936;2022-10-30T07:24:28;101823.44;;;12.96;73.27
22333;BME280;11334;36.986;-121.936;2022-10-30T07:26:55;101815.91;;;12.92;73.13
22333;BME280;11334;36.986;-121.936;2022-10-30T07:29:21;101813.41;;;12.91;73.18
22333;BME280;11334;36.986;-121.936;2022-10-30T07:31:48;101804.47;;;12.82;72.88
22333;BME280;11334;36.986;-121.936;2022-10-30T07:34:15;101818.16;;;12.87;73.65
22333;BME280;11334;36.986;-121.936;2022-10-30T07:36:41;101816.19;;;12.89;73.65
22333;BME280;11334;36.986;-121.936;2022-10-30T07:39:07;101808.50;;;12.86;72.99
22333;BME280;11334;36.986;-121.936;2022-10-30T07:41:34;101808.94;;;12.82;73.37
22333;BME280;11334;36.986;-121.936;2022-10-30T07:44:00;101805.31;;;12.73;73.31
22333;BME280;11334;36.986;-121.936;2022-10-30T07:46:26;101806.59;;;12.79;73.34
22333;BME280;11334;36.986;-121.936;2022-10-30T07:48:52;101793.59;;;12.76;73.35
22333;BME280;11334;36.986;-121.936;2022-10-30T07:51:18;101795.63;;;12.72;73.43
22333;BME280;11334;36.986;-121.936;2022-10-30T07:53:45;101799.16;;;12.73;73.82
22333;BME280;11334;36.986;-121.936;2022-10-30T07:56:11;101799.59;;;12.68;73.58
22333;BME280;11334;36.986;-121.936;2022-10-30T07:58:37;101791.03;;;12.74;73.24
22333;BME280;11334;36.986;-121.936;2022-10-30T08:01:03;101802.78;;;12.72;73.42
22333;BME280;11334;36.986;-121.936;2022-10-30T08:03:29;101793.44;;;12.68;73.58
22333;BME280;11334;36.986;-121.936;2022-10-30T08:05:56;101782.22;;;12.64;74.02
22333;BME280;11334;36.986;-121.936;2022-10-30T08:08:22;101788.84;;;12.61;73.98
22333;BME280;11334;36.986;-121.936;2022-10-30T08:10:48;101782.69;;;12.60;74.23
22333;BME280;11334;36.986;-121.936;2022-10-30T08:13:15;101785.59;;;12.66;73.94
22333;BME280;11334;36.986;-121.936;2022-10-30T08:15:43;101778.44;;;12.67;73.21
22333;BME280;11334;36.986;-121.936;2022-10-30T08:18:09;101779.16;;;12.69;72.66
22333;BME280;11334;36.986;-121.936;2022-10-30T08:20:35;101781.81;;;12.69;72.49
22333;BME280;11334;36.986;-121.936;2022-10-30T08:23:01;101775.25;;;12.63;73.20
22333;BME280;11334;36.986;-121.936;2022-10-30T08:25:29;101782.53;;;12.62;73.44
22333;BME280;11334;36.986;-121.936;2022-10-30T08:30:22;101771.78;;;12.54;73.15
22333;BME280;11334;36.986;-121.936;2022-10-30T08:32:49;101784.66;;;12.49;73.44
22333;BME280;11334;36.986;-121.936;2022-10-30T08:35:16;101776.56;;;12.41;73.73
22333;BME280;11334;36.986;-121.936;2022-10-30T08:37:42;101783.44;;;12.43;73.50
22333;BME280;11334;36.986;-121.936;2022-10-30T08:40:12;101779.38;;;12.39;73.69
22333;BME280;11334;36.986;-121.936;2022-10-30T08:42:38;101784.69;;;12.39;73.98
22333;BME280;11334;36.986;-121.936;2022-10-30T08:45:05;101769.63;;;12.31;73.56
22333;BME280;11334;36.986;-121.936;2022-10-30T08:47:31;101766.38;;;12.27;74.08
22333;BME280;11334;36.986;-121.936;2022-10-30T08:49:57;101772.53;;;12.28;73.84
22333;BME280;11334;36.986;-121.936;2022-10-30T08:52:24;101769.03;;;12.18;74.26
22333;BME280;11334;36.986;-121.936;2022-10-30T08:54:50;101766.25;;;12.19;74.45
22333;BME280;11334;36.986;-121.936;2022-10-30T08:57:16;101756.75;;;12.07;75.07
22333;BME280;11334;36.986;-121.936;2022-10-30T08:59:42;101762.06;;;12.17;74.57
22333;BME280;11334;36.986;-121.936;2022-10-30T09:02:08;101764.91;;;12.06;75.21
22333;BME280;11334;36.986;-121.936;2022-10-30T09:04:34;101763.78;;;12.08;74.58
22333;BME280;11334;36.986;-121.936;2022-10-30T09:07:01;101772.69;;;11.98;75.42
22333;BME280;11334;36.986;-121.936;2022-10-30T09:09:27;101769.63;;;12.12;75.34
22333;BME280;11334;36.986;-121.936;2022-10-30T09:11:53;101770.88;;;12.17;74.30
22333;BME280;11334;36.986;-121.936;2022-10-30T09:14:19;101764.44;;;12.20;74.22
22333;BME280;11334;36.986;-121.936;2022-10-30T09:16:45;101759.72;;;12.14;73.95
22333;BME280;11334;36.986;-121.936;2022-10-30T09:19:11;101753.56;;;12.13;73.98
22333;BME280;11334;36.986;-121.936;2022-10-30T09:21:38;101761.38;;;12.15;73.75
22333;BME280;11334;36.986;-121.936;2022-10-30T09:24:04;101760.97;;;12.10;73.84
22333;BME280;11334;36.986;-121.936;2022-10-30T09:26:30;101765.97;;;12.13;73.91
22333;BME280;11334;36.986;-121.936;2022-10-30T09:28:56;101757.75;;;12.06;74.26
22333;BME280;11334;36.986;-121.936;2022-10-30T09:31:23;101764.59;;;12.09;74.30
22333;BME280;11334;36.986;-121.936;2022-10-30T09:33:49;101753.00;;;12.10;73.82
22333;BME280;11334;36.986;-121.936;2022-10-30T09:36:15;101753.69;;;12.02;73.87
22333;BME280;11334;36.986;-121.936;2022-10-30T09:38:41;101751.75;;;12.04;74.33
22333;BME280;11334;36.986;-121.936;2022-10-30T09:41:20;101753.56;;;12.04;73.99
22333;BME280;11334;36.986;-121.936;2022-10-30T09:44:14;101758.31;;;12.00;73.81
22333;BME280;11334;36.986;-121.936;2022-10-30T09:52:25;101762.94;;;11.89;74.09
22333;BME280;11334;36.986;-121.936;2022-10-30T09:58:01;101756.09;;;11.87;74.39
22333;BME280;11334;36.986;-121.936;2022-10-30T10:00:36;101742.41;;;11.82;74.14
22333;BME280;11334;36.986;-121.936;2022-10-30T10:03:40;101752.84;;;11.83;74.54
22333;BME280;11334;36.986;-121.936;2022-10-30T10:06:17;101747.53;;;11.83;74.53
22333;BME280;11334;36.986;-121.936;2022-10-30T10:08:48;101738.75;;;11.83;74.29
22333;BME280;11334;36.986;-121.936;2022-10-30T10:11:31;101737.78;;;11.74;74.20
22333;BME280;11334;36.986;-121.936;2022-10-30T10:16:38;101738.91;;;11.72;74.32
22333;BME280;11334;36.986;-121.936;2022-10-30T10:19:37;101739.75;;;11.72;74.30
22333;BME280;11334;36.986;-121.936;2022-10-30T10:22:19;101733.19;;;11.67;75.22
22333;BME280;11334;36.986;-121.936;2022-10-30T10:24:46;101747.56;;;11.65;75.12
22333;BME280;11334;36.986;-121.936;2022-10-30T10:32:58;101730.81;;;11.64;74.97
22333;BME280;11334;36.986;-121.936;2022-10-30T10:46:16;101728.00;;;11.56;75.34
22333;BME280;11334;36.986;-121.936;2022-10-30T10:52:12;101722.00;;;11.54;74.29
22333;BME280;11334;36.986;-121.936;2022-10-30T10:54:20;101725.22;;;11.58;74.54
22333;BME280;11334;36.986;-121.936;2022-10-30T10:56:50;101733.03;;;11.59;74.55
22333;BME280;11334;36.986;-121.936;2022-10-30T10:59:30;101738.47;;;11.48;74.65
22333;BME280;11334;36.986;-121.936;2022-10-30T11:04:42;101729.66;;;11.48;74.79
22333;BME280;11334;36.986;-121.936;2022-10-30T11:07:17;101720.28;;;11.35;75.70
22333;BME280;11334;36.986;-121.936;2022-10-30T11:09:46;101738.75;;;11.45;75.34
22333;BME280;11334;36.986;-121.936;2022-10-30T11:12:18;101721.44;;;11.51;74.36
22333;BME280;11334;36.986;-121.936;2022-10-30T11:14:45;101728.25;;;11.44;74.88
22333;BME280;11334;36.986;-121.936;2022-10-30T11:17:18;101731.06;;;11.42;75.20
22333;BME280;11334;36.986;-121.936;2022-10-30T11:19:48;101724.78;;;11.43;74.70
22333;BME280;11334;36.986;-121.936;2022-10-30T11:22:39;101721.81;;;11.37;74.85
22333;BME280;11334;36.986;-121.936;2022-10-30T11:25:19;101719.84;;;11.39;75.46
22333;BME280;11334;36.986;-121.936;2022-10-30T11:27:49;101711.19;;;11.37;75.03
22333;BME280;11334;36.986;-121.936;2022-10-30T11:30:22;101710.22;;;11.38;75.07
22333;BME280;11334;36.986;-121.936;2022-10-30T11:32:49;101710.22;;;11.38;75.32
22333;BME280;11334;36.986;-121.936;2022-10-30T11:35:18;101703.91;;;11.39;75.00
22333;BME280;11334;36.986;-121.936;2022-10-30T11:37:50;101699.72;;;11.36;74.87
22333;BME280;11334;36.986;-121.936;2022-10-30T11:40:21;101698.06;;;11.35;75.29
22333;BME280;11334;36.986;-121.936;2022-10-30T11:45:27;101696.09;;;11.28;74.71
22333;BME280;11334;36.986;-121.936;2022-10-30T11:47:56;101695.69;;;11.33;75.10
22333;BME280;11334;36.986;-121.936;2022-10-30T11:50:26;101689.69;;;11.31;74.82
22333;BME280;11334;36.986;-121.936;2022-10-30T11:53:02;101682.44;;;11.33;75.15
22333;BME280;11334;36.986;-121.936;2022-10-30T11:55:38;101687.03;;;11.31;74.89
22333;BME280;11334;36.986;-121.936;2022-10-30T11:58:05;101694.44;;;11.27;75.06
22333;BME280;11334;36.986;-121.936;2022-10-30T12:00:35;101688.97;;;11.29;75.46
22333;BME280;11334;36.986;-121.936;2022-10-30T12:03:02;101681.19;;;11.27;75.04
22333;BME280;11334;36.986;-121.936;2022-10-30T12:10:37;101694.00;;;11.13;75.54
22333;BME280;11334;36.986;-121.936;2022-10-30T12:13:06;101696.66;;;11.22;75.25
22333;BME280;11334;36.986;-121.936;2022-10-30T12:15:38;101693.72;;;11.25;75.00
22333;BME280;11334;36.986;-121.936;2022-10-30T12:18:07;101703.34;;;11.26;75.09
22333;BME280;11334;36.986;-121.936;2022-10-30T12:20:36;101701.97;;;11.22;74.98
22333;BME280;11334;36.986;-121.936;2022-10-30T12:23:13;101701.81;;;11.24;75.29
22333;BME280;11334;36.986;-121.936;2022-10-30T12:25:45;101694.44;;;11.27;75.45
22333;BME280;11334;36.986;-121.936;2022-10-30T12:28:19;101698.75;;;11.28;75.29
22333;BME280;11334;36.986;-121.936;2022-10-30T12:33:35;101698.91;;;11.17;75.45
22333;BME280;11334;36.986;-121.936;2022-10-30T12:36:10;101704.75;;;11.21;75.90
22333;BME280;11334;36.986;-121.936;2022-10-30T12:41:58;101705.16;;;11.16;75.75
22333;BME280;11334;36.986;-121.936;2022-10-30T12:44:32;101713.38;;;11.13;75.32
22333;BME280;11334;36.986;-121.936;2022-10-30T12:47:19;101708.25;;;11.12;76.03
22333;BME280;11334;36.986;-121.936;2022-10-30T12:50:16;101708.91;;;10.95;76.30
22333;BME280;11334;36.986;-121.936;2022-10-30T12:52:54;101716.00;;;11.04;75.68
22333;BME280;11334;36.986;-121.936;2022-10-30T12:55:46;101719.53;;;11.04;75.73
22333;BME280;11334;36.986;-121.936;2022-10-30T13:01:48;101727.72;;;11.02;76.17
22333;BME280;11334;36.986;-121.936;2022-10-30T13:04:23;101709.56;;;10.88;76.04
22333;BME280;11334;36.986;-121.936;2022-10-30T13:12:38;101721.28;;;10.85;76.42
22333;BME280;11334;36.986;-121.936;2022-10-30T13:17:38;101714.47;;;10.92;75.92
22333;BME280;11334;36.986;-121.936;2022-10-30T13:20:11;101713.75;;;10.90;76.49
22333;BME280;11334;36.986;-121.936;2022-10-30T13:22:59;101716.94;;;10.84;76.37
22333;BME280;11334;36.986;-121.936;2022-10-30T13:28:24;101712.75;;;10.82;76.95
22333;BME280;11334;36.986;-121.936;2022-10-30T13:39:21;101711.38;;;10.87;75.74
22333;BME280;11334;36.986;-121.936;2022-10-30T13:50:20;101713.00;;;10.79;76.23
22333;BME280;11334;36.986;-121.936;2022-10-30T13:52:55;101709.53;;;10.78;75.94
22333;BME280;11334;36.986;-121.936;2022-10-30T13:55:28;101704.53;;;10.85;75.50
22333;BME280;11334;36.986;-121.936;2022-10-30T13:58:25;101713.72;;;10.81;76.10
22333;BME280;11334;36.986;-121.936;2022-10-30T14:01:08;101704.34;;;10.77;76.12
22333;BME280;11334;36.986;-121.936;2022-10-30T14:08:55;101692.53;;;10.81;74.99
22333;BME280;11334;36.986;-121.936;2022-10-30T14:11:24;101706.06;;;10.78;75.21
22333;BME280;11334;36.986;-121.936;2022-10-30T14:13:55;101707.28;;;10.74;75.22
22333;BME280;11334;36.986;-121.936;2022-10-30T14:19:11;101706.34;;;10.55;76.28
22333;BME280;11334;36.986;-121.936;2022-10-30T14:21:54;101705.81;;;10.51;76.19
22333;BME280;11334;36.986;-121.936;2022-10-30T14:24:28;101704.31;;;10.58;76.43